sensor_id;sensor_type;location;lat;lon;timestamp;pressure;altitude;pressure_sealevel;temperature
62930;BMP280;49036;42.782;23.108;2023-07-24T00:00:31;94260.19;;;15.77
62930;BMP280;49036;42.782;23.108;2023-07-24T00:02:59;94270.56;;;15.74
62930;BMP280;49036;42.782;23.108;2023-07-24T00:05:24;94264.25;;;15.74
62930;BMP280;49036;42.782;23.108;2023-07-24T00:07:50;94268.16;;;15.69
62930;BMP280;49036;42.782;23.108;2023-07-24T00:10:15;94261.84;;;15.68
62930;BMP280;49036;42.782;23.108;2023-07-24T00:12:41;94263.19;;;15.67
62930;BMP280;49036;42.782;23.108;2023-07-24T00:15:06;94254.41;;;15.73
62930;BMP280;49036;42.782;23.108;2023-07-24T00:17:32;94257.84;;;15.71
62930;BMP280;49036;42.782;23.108;2023-07-24T00:19:58;94258.44;;;15.83
62930;BMP280;49036;42.782;23.108;2023-07-24T00:22:23;94260.44;;;15.94
62930;BMP280;49036;42.782;23.108;2023-07-24T00:24:48;94261.25;;;15.97
62930;BMP280;49036;42.782;23.108;2023-07-24T00:27:14;94256.91;;;15.80
62930;BMP280;49036;42.782;23.108;2023-07-24T00:29:39;94260.81;;;15.75
62930;BMP280;49036;42.782;23.108;2023-07-24T00:32:05;94250.31;;;15.62
62930;BMP280;49036;42.782;23.108;2023-07-24T00:34:31;94249.47;;;15.46
62930;BMP280;49036;42.782;23.108;2023-07-24T00:36:56;94251.63;;;15.34
62930;BMP280;49036;42.782;23.108;2023-07-24T00:39:22;94254.66;;;15.26
62930;BMP280;49036;42.782;23.108;2023-07-24T00:41:47;94255.41;;;15.26
62930;BMP280;49036;42.782;23.108;2023-07-24T00:44:13;94246.59;;;15.18
62930;BMP280;49036;42.782;23.108;2023-07-24T00:46:38;94258.03;;;15.11
62930;BMP280;49036;42.782;23.108;2023-07-24T00:49:04;94248.56;;;15.04
62930;BMP280;49036;42.782;23.108;2023-07-24T00:51:31;94251.28;;;15.02
62930;BMP280;49036;42.782;23.108;2023-07-24T00:54:01;94252.28;;;14.95
62930;BMP280;49036;42.782;23.108;2023-07-24T00:56:28;94251.06;;;14.86
62930;BMP280;49036;42.782;23.108;2023-07-24T00:58:54;94241.63;;;14.80
62930;BMP280;49036;42.782;23.108;2023-07-24T01:01:24;94244.66;;;14.84
62930;BMP280;49036;42.782;23.108;2023-07-24T01:03:51;94240.72;;;15.01
62930;BMP280;49036;42.782;23.108;2023-07-24T01:06:17;94238.66;;;15.01
62930;BMP280;49036;42.782;23.108;2023-07-24T01:08:42;94228.44;;;14.94
62930;BMP280;49036;42.782;23.108;2023-07-24T01:11:26;94220.47;;;14.88
62930;BMP280;49036;42.782;23.108;2023-07-24T01:13:56;94226.56;;;14.85
62930;BMP280;49036;42.782;23.108;2023-07-24T01:16:26;94226.78;;;14.89
62930;BMP280;49036;42.782;23.108;2023-07-24T01:18:56;94234.56;;;14.90
62930;BMP280;49036;42.782;23.108;2023-07-24T01:22:24;94239.88;;;14.86
62930;BMP280;49036;42.782;23.108;2023-07-24T01:24:30;94243.09;;;14.81
62930;BMP280;49036;42.782;23.108;2023-07-24T01:26:58;94231.06;;;14.78
62930;BMP280;49036;42.782;23.108;2023-07-24T01:29:24;94229.50;;;14.75
62930;BMP280;49036;42.782;23.108;2023-07-24T01:31:50;94229.75;;;14.68
62930;BMP280;49036;42.782;23.108;2023-07-24T01:34:15;94234.44;;;14.51
62930;BMP280;49036;42.782;23.108;2023-07-24T01:36:41;94236.63;;;14.41
62930;BMP280;49036;42.782;23.108;2023-07-24T01:39:07;94225.00;;;14.33
62930;BMP280;49036;42.782;23.108;2023-07-24T01:41:33;94229.63;;;14.28
62930;BMP280;49036;42.782;23.108;2023-07-24T01:43:59;94228.78;;;14.26
62930;BMP280;49036;42.782;23.108;2023-07-24T01:46:24;94231.31;;;14.34
62930;BMP280;49036;42.782;23.108;2023-07-24T01:48:50;94239.56;;;14.43
62930;BMP280;49036;42.782;23.108;2023-07-24T01:51:17;94236.56;;;14.65
62930;BMP280;49036;42.782;23.108;2023-07-24T01:53:43;94238.00;;;14.77
62930;BMP280;49036;42.782;23.108;2023-07-24T01:56:08;94239.81;;;14.84
62930;BMP280;49036;42.782;23.108;2023-07-24T01:58:34;94238.00;;;15.03
62930;BMP280;49036;42.782;23.108;2023-07-24T02:00:59;94246.59;;;15.18
62930;BMP280;49036;42.782;23.108;2023-07-24T02:03:25;94245.69;;;15.27
62930;BMP280;49036;42.782;23.108;2023-07-24T02:05:50;94241.00;;;15.32
62930;BMP280;49036;42.782;23.108;2023-07-24T02:08:17;94236.16;;;15.33
62930;BMP280;49036;42.782;23.108;2023-07-24T02:10:42;94238.75;;;15.28
62930;BMP280;49036;42.782;23.108;2023-07-24T02:13:08;94237.69;;;15.22
62930;BMP280;49036;42.782;23.108;2023-07-24T02:15:34;94229.34;;;15.10
62930;BMP280;49036;42.782;23.108;2023-07-24T02:18:00;94221.88;;;15.01
62930;BMP280;49036;42.782;23.108;2023-07-24T02:20:25;94224.91;;;14.93
62930;BMP280;49036;42.782;23.108;2023-07-24T02:22:51;94224.16;;;14.79
62930;BMP280;49036;42.782;23.108;2023-07-24T02:25:16;94229.75;;;14.68
62930;BMP280;49036;42.782;23.108;2023-07-24T02:27:42;94233.78;;;14.65
62930;BMP280;49036;42.782;23.108;2023-07-24T02:30:08;94232.59;;;14.56
62930;BMP280;49036;42.782;23.108;2023-07-24T02:32:33;94221.09;;;14.50
62930;BMP280;49036;42.782;23.108;2023-07-24T02:34:59;94219.25;;;14.43
62930;BMP280;49036;42.782;23.108;2023-07-24T02:37:24;94225.00;;;14.33
62930;BMP280;49036;42.782;23.108;2023-07-24T02:39:51;94223.81;;;14.24
62930;BMP280;49036;42.782;23.108;2023-07-24T02:42:17;94229.13;;;14.20
62930;BMP280;49036;42.782;23.108;2023-07-24T02:44:42;94224.41;;;14.23
62930;BMP280;49036;42.782;23.108;2023-07-24T02:47:08;94222.94;;;14.22
62930;BMP280;49036;42.782;23.108;2023-07-24T02:49:33;94224.53;;;14.25
62930;BMP280;49036;42.782;23.108;2023-07-24T02:51:59;94229.03;;;14.30
62930;BMP280;49036;42.782;23.108;2023-07-24T02:54:25;94227.06;;;14.33
62930;BMP280;49036;42.782;23.108;2023-07-24T02:56:51;94233.38;;;14.33
62930;BMP280;49036;42.782;23.108;2023-07-24T02:59:17;94227.91;;;14.35
62930;BMP280;49036;42.782;23.108;2023-07-24T03:01:42;94227.41;;;14.39
62930;BMP280;49036;42.782;23.108;2023-07-24T03:04:08;94232.75;;;14.35
62930;BMP280;49036;42.782;23.108;2023-07-24T03:06:33;94235.34;;;14.31
62930;BMP280;49036;42.782;23.108;2023-07-24T03:08:59;94238.97;;;14.33
62930;BMP280;49036;42.782;23.108;2023-07-24T03:11:24;94225.75;;;14.22
62930;BMP280;49036;42.782;23.108;2023-07-24T03:13:50;94230.38;;;14.17
62930;BMP280;49036;42.782;23.108;2023-07-24T03:16:15;94222.94;;;14.22
62930;BMP280;49036;42.782;23.108;2023-07-24T03:18:42;94229.41;;;14.13
62930;BMP280;49036;42.782;23.108;2023-07-24T03:21:08;94229.16;;;14.09
62930;BMP280;49036;42.782;23.108;2023-07-24T03:23:34;94227.94;;;14.12
62930;BMP280;49036;42.782;23.108;2023-07-24T03:25:59;94237.28;;;14.16
62930;BMP280;49036;42.782;23.108;2023-07-24T03:28:25;94230.84;;;14.14
62930;BMP280;49036;42.782;23.108;2023-07-24T03:30:51;94239.09;;;14.23
62930;BMP280;49036;42.782;23.108;2023-07-24T03:33:17;94242.34;;;14.32
62930;BMP280;49036;42.782;23.108;2023-07-24T03:35:42;94233.00;;;14.39
62930;BMP280;49036;42.782;23.108;2023-07-24T03:38:08;94235.56;;;14.35
62930;BMP280;49036;42.782;23.108;2023-07-24T03:40:33;94233.97;;;14.32
62930;BMP280;49036;42.782;23.108;2023-07-24T03:42:59;94233.38;;;14.33
62930;BMP280;49036;42.782;23.108;2023-07-24T03:45:24;94232.56;;;14.31
62930;BMP280;49036;42.782;23.108;2023-07-24T03:47:50;94233.13;;;14.29
62930;BMP280;49036;42.782;23.108;2023-07-24T03:50:16;94242.34;;;14.32
62930;BMP280;49036;42.782;23.108;2023-07-24T03:52:42;94229.63;;;14.28
62930;BMP280;49036;42.782;23.108;2023-07-24T03:55:07;94240.41;;;14.34
62930;BMP280;49036;42.782;23.108;2023-07-24T03:57:33;94240.03;;;14.51
62930;BMP280;49036;42.782;23.108;2023-07-24T03:59:59;94231.72;;;14.65
62930;BMP280;49036;42.782;23.108;2023-07-24T04:02:24;94236.09;;;14.93
62930;BMP280;49036;42.782;23.108;2023-07-24T04:04:50;94234.94;;;15.10
62930;BMP280;49036;42.782;23.108;2023-07-24T04:07:15;94232.72;;;15.20
62930;BMP280;49036;42.782;23.108;2023-07-24T04:09:41;94233.25;;;15.30
62930;BMP280;49036;42.782;23.108;2023-07-24T04:12:06;94236.81;;;15.45
62930;BMP280;49036;42.782;23.108;2023-07-24T04:14:32;94236.78;;;15.84
62930;BMP280;49036;42.782;23.108;2023-07-24T04:16:57;94235.97;;;16.36
62930;BMP280;49036;42.782;23.108;2023-07-24T04:19:23;94230.28;;;17.22
62930;BMP280;49036;42.782;23.108;2023-07-24T04:21:48;94227.66;;;18.05
62930;BMP280;49036;42.782;23.108;2023-07-24T04:24:14;94240.91;;;18.36
62930;BMP280;49036;42.782;23.108;2023-07-24T04:39:05;94242.22;;;20.38
62930;BMP280;49036;42.782;23.108;2023-07-24T04:41:30;94248.91;;;21.14
62930;BMP280;49036;42.782;23.108;2023-07-24T04:43:56;94244.16;;;21.45
62930;BMP280;49036;42.782;23.108;2023-07-24T04:46:21;94250.97;;;21.85
62930;BMP280;49036;42.782;23.108;2023-07-24T04:48:47;94252.00;;;22.52
62930;BMP280;49036;42.782;23.108;2023-07-24T04:51:12;94251.31;;;23.13
62930;BMP280;49036;42.782;23.108;2023-07-24T04:55:50;94247.97;;;23.90
62930;BMP280;49036;42.782;23.108;2023-07-24T04:58:15;94245.22;;;23.94
62930;BMP280;49036;42.782;23.108;2023-07-24T05:00:41;94249.00;;;24.07
62930;BMP280;49036;42.782;23.108;2023-07-24T05:03:06;94245.84;;;24.27
62930;BMP280;49036;42.782;23.108;2023-07-24T05:05:39;94243.84;;;24.35
62930;BMP280;49036;42.782;23.108;2023-07-24T05:08:04;94247.75;;;24.56
62930;BMP280;49036;42.782;23.108;2023-07-24T05:10:37;94255.69;;;24.66
62930;BMP280;49036;42.782;23.108;2023-07-24T05:13:03;94249.88;;;25.02
62930;BMP280;49036;42.782;23.108;2023-07-24T05:15:28;94247.47;;;24.84
62930;BMP280;49036;42.782;23.108;2023-07-24T05:17:54;94248.00;;;24.72
62930;BMP280;49036;42.782;23.108;2023-07-24T05:20:19;94252.19;;;24.67
62930;BMP280;49036;42.782;23.108;2023-07-24T05:22:45;94247.16;;;24.64
62930;BMP280;49036;42.782;23.108;2023-07-24T05:25:11;94248.00;;;24.72
62930;BMP280;49036;42.782;23.108;2023-07-24T05:27:36;94255.50;;;24.98
62930;BMP280;49036;42.782;23.108;2023-07-24T05:30:03;94247.31;;;25.22
62930;BMP280;49036;42.782;23.108;2023-07-24T05:32:29;94251.75;;;25.33
62930;BMP280;49036;42.782;23.108;2023-07-24T05:34:54;94251.91;;;25.45
62930;BMP280;49036;42.782;23.108;2023-07-24T05:37:20;94255.00;;;25.68
62930;BMP280;49036;42.782;23.108;2023-07-24T05:39:45;94249.31;;;25.68
62930;BMP280;49036;42.782;23.108;2023-07-24T05:42:11;94250.16;;;25.78
62930;BMP280;49036;42.782;23.108;2023-07-24T05:44:36;94255.28;;;25.94
62930;BMP280;49036;42.782;23.108;2023-07-24T05:47:02;94248.28;;;26.03
62930;BMP280;49036;42.782;23.108;2023-07-24T05:49:28;94244.88;;;26.17
62930;BMP280;49036;42.782;23.108;2023-07-24T05:51:54;94244.25;;;26.26
62930;BMP280;49036;42.782;23.108;2023-07-24T05:54:19;94257.09;;;26.31
62930;BMP280;49036;42.782;23.108;2023-07-24T05:57:18;94238.59;;;26.34
62930;BMP280;49036;42.782;23.108;2023-07-24T05:59:44;94242.22;;;26.41
62930;BMP280;49036;42.782;23.108;2023-07-24T06:02:09;94240.09;;;26.39
62930;BMP280;49036;42.782;23.108;2023-07-24T06:04:36;94240.69;;;26.26
62930;BMP280;49036;42.782;23.108;2023-07-24T06:07:01;94248.66;;;26.42
62930;BMP280;49036;42.782;23.108;2023-07-24T06:09:27;94245.38;;;26.73
62930;BMP280;49036;42.782;23.108;2023-07-24T06:11:52;94246.16;;;26.86
62930;BMP280;49036;42.782;23.108;2023-07-24T06:14:18;94242.78;;;27.22
62930;BMP280;49036;42.782;23.108;2023-07-24T06:16:43;94250.19;;;26.57
62930;BMP280;49036;42.782;23.108;2023-07-24T06:19:09;94245.66;;;26.25
62930;BMP280;49036;42.782;23.108;2023-07-24T06:21:34;94239.97;;;26.27
62930;BMP280;49036;42.782;23.108;2023-07-24T06:24:00;94240.16;;;26.48
62930;BMP280;49036;42.782;23.108;2023-07-24T06:26:25;94236.22;;;26.07
62930;BMP280;49036;42.782;23.108;2023-07-24T06:28:50;94233.84;;;25.83
62930;BMP280;49036;42.782;23.108;2023-07-24T06:31:16;94229.72;;;25.36
62930;BMP280;49036;42.782;23.108;2023-07-24T06:33:41;94241.03;;;25.32
62930;BMP280;49036;42.782;23.108;2023-07-24T06:37:01;94235.94;;;25.22
62930;BMP280;49036;42.782;23.108;2023-07-24T06:39:26;94237.09;;;25.03
62930;BMP280;49036;42.782;23.108;2023-07-24T06:41:54;94241.66;;;24.30
62930;BMP280;49036;42.782;23.108;2023-07-24T06:44:20;94236.53;;;23.84
62930;BMP280;49036;42.782;23.108;2023-07-24T06:46:45;94237.16;;;23.45
62930;BMP280;49036;42.782;23.108;2023-07-24T06:49:11;94235.41;;;23.64
62930;BMP280;49036;42.782;23.108;2023-07-24T06:53:35;94233.88;;;23.94
62930;BMP280;49036;42.782;23.108;2023-07-24T06:56:01;94230.06;;;23.80
62930;BMP280;49036;42.782;23.108;2023-07-24T06:58:26;94227.47;;;24.30
62930;BMP280;49036;42.782;23.108;2023-07-24T07:00:52;94225.19;;;24.64
62930;BMP280;49036;42.782;23.108;2023-07-24T07:03:17;94228.78;;;25.19
62930;BMP280;49036;42.782;23.108;2023-07-24T07:05:43;94229.88;;;25.46
62930;BMP280;49036;42.782;23.108;2023-07-24T07:08:08;94228.84;;;25.83
62930;BMP280;49036;42.782;23.108;2023-07-24T07:10:34;94226.94;;;26.02
62930;BMP280;49036;42.782;23.108;2023-07-24T07:12:59;94229.97;;;26.18
62930;BMP280;49036;42.782;23.108;2023-07-24T07:15:25;94224.84;;;26.05
62930;BMP280;49036;42.782;23.108;2023-07-24T07:17:50;94233.25;;;25.92
62930;BMP280;49036;42.782;23.108;2023-07-24T07:20:16;94228.41;;;26.07
62930;BMP280;49036;42.782;23.108;2023-07-24T07:22:41;94224.19;;;26.12
62930;BMP280;49036;42.782;23.108;2023-07-24T07:25:07;94213.84;;;25.77
62930;BMP280;49036;42.782;23.108;2023-07-24T07:27:33;94216.69;;;25.73
62930;BMP280;49036;42.782;23.108;2023-07-24T07:29:58;94219.13;;;26.03
62930;BMP280;49036;42.782;23.108;2023-07-24T07:32:24;94210.19;;;26.38
62930;BMP280;49036;42.782;23.108;2023-07-24T07:34:50;94211.78;;;26.56
62930;BMP280;49036;42.782;23.108;2023-07-24T07:37:15;94217.50;;;26.64
62930;BMP280;49036;42.782;23.108;2023-07-24T07:39:41;94214.75;;;26.74
62930;BMP280;49036;42.782;23.108;2023-07-24T07:42:06;94212.69;;;26.89
62930;BMP280;49036;42.782;23.108;2023-07-24T07:44:32;94212.06;;;27.04
62930;BMP280;49036;42.782;23.108;2023-07-24T07:46:57;94208.63;;;27.26
62930;BMP280;49036;42.782;23.108;2023-07-24T07:49:23;94220.84;;;27.51
62930;BMP280;49036;42.782;23.108;2023-07-24T07:51:48;94222.13;;;27.21
62930;BMP280;49036;42.782;23.108;2023-07-24T07:54:14;94229.31;;;27.33
62930;BMP280;49036;42.782;23.108;2023-07-24T07:56:40;94211.63;;;27.75
62930;BMP280;49036;42.782;23.108;2023-07-24T07:59:06;94218.13;;;28.01
62930;BMP280;49036;42.782;23.108;2023-07-24T08:01:32;94210.78;;;27.30
62930;BMP280;49036;42.782;23.108;2023-07-24T08:03:57;94220.16;;;27.65
62930;BMP280;49036;42.782;23.108;2023-07-24T08:06:23;94212.41;;;28.01
62930;BMP280;49036;42.782;23.108;2023-07-24T08:08:49;94207.44;;;28.20
62930;BMP280;49036;42.782;23.108;2023-07-24T08:11:15;94203.84;;;27.97
62930;BMP280;49036;42.782;23.108;2023-07-24T08:13:41;94198.84;;;28.06
62930;BMP280;49036;42.782;23.108;2023-07-24T08:16:13;94192.44;;;28.32
62930;BMP280;49036;42.782;23.108;2023-07-24T08:18:44;94201.03;;;28.34
62930;BMP280;49036;42.782;23.108;2023-07-24T08:21:10;94188.81;;;27.85
62930;BMP280;49036;42.782;23.108;2023-07-24T08:23:35;94194.59;;;28.21
62930;BMP280;49036;42.782;23.108;2023-07-24T08:26:01;94186.72;;;28.58
62930;BMP280;49036;42.782;23.108;2023-07-24T08:28:27;94188.81;;;28.84
62930;BMP280;49036;42.782;23.108;2023-07-24T08:30:56;94181.56;;;29.13
62930;BMP280;49036;42.782;23.108;2023-07-24T08:33:23;94180.78;;;29.29
62930;BMP280;49036;42.782;23.108;2023-07-24T08:36:06;94180.03;;;29.37
62930;BMP280;49036;42.782;23.108;2023-07-24T08:38:32;94179.31;;;29.36
62930;BMP280;49036;42.782;23.108;2023-07-24T08:41:06;94176.31;;;29.62
62930;BMP280;49036;42.782;23.108;2023-07-24T08:43:34;94177.16;;;29.43
62930;BMP280;49036;42.782;23.108;2023-07-24T08:46:01;94177.81;;;29.51
62930;BMP280;49036;42.782;23.108;2023-07-24T08:48:34;94174.75;;;29.82
62930;BMP280;49036;42.782;23.108;2023-07-24T08:51:04;94176.25;;;29.74
62930;BMP280;49036;42.782;23.108;2023-07-24T08:53:30;94174.91;;;29.61
62930;BMP280;49036;42.782;23.108;2023-07-24T08:55:56;94177.63;;;29.80
62930;BMP280;49036;42.782;23.108;2023-07-24T08:58:22;94168.78;;;30.16
62930;BMP280;49036;42.782;23.108;2023-07-24T09:00:48;94180.75;;;30.37
62930;BMP280;49036;42.782;23.108;2023-07-24T09:03:13;94169.63;;;30.78
62930;BMP280;49036;42.782;23.108;2023-07-24T09:05:39;94166.34;;;31.12
62930;BMP280;49036;42.782;23.108;2023-07-24T09:08:04;94166.25;;;31.18
62930;BMP280;49036;42.782;23.108;2023-07-24T09:10:30;94168.91;;;30.77
62930;BMP280;49036;42.782;23.108;2023-07-24T09:12:55;94162.97;;;30.95
62930;BMP280;49036;42.782;23.108;2023-07-24T09:15:21;94163.91;;;31.35
62930;BMP280;49036;42.782;23.108;2023-07-24T09:17:51;94159.03;;;31.23
62930;BMP280;49036;42.782;23.108;2023-07-24T09:20:18;94155.75;;;31.54
62930;BMP280;49036;42.782;23.108;2023-07-24T09:22:50;94150.03;;;31.99
62930;BMP280;49036;42.782;23.108;2023-07-24T09:25:16;94141.13;;;32.15
62930;BMP280;49036;42.782;23.108;2023-07-24T09:27:42;94151.06;;;31.77
62930;BMP280;49036;42.782;23.108;2023-07-24T09:30:14;94145.84;;;31.42
62930;BMP280;49036;42.782;23.108;2023-07-24T09:32:40;94141.09;;;31.25
62930;BMP280;49036;42.782;23.108;2023-07-24T09:35:19;94134.72;;;31.18
62930;BMP280;49036;42.782;23.108;2023-07-24T09:37:45;94132.75;;;31.56
62930;BMP280;49036;42.782;23.108;2023-07-24T09:40:13;94122.88;;;31.89
62930;BMP280;49036;42.782;23.108;2023-07-24T09:42:39;94127.59;;;31.64
62930;BMP280;49036;42.782;23.108;2023-07-24T09:45:08;94125.06;;;31.89
62930;BMP280;49036;42.782;23.108;2023-07-24T09:47:34;94127.13;;;32.74
62930;BMP280;49036;42.782;23.108;2023-07-24T09:50:02;94123.50;;;32.74
62930;BMP280;49036;42.782;23.108;2023-07-24T09:52:30;94124.06;;;32.46
62930;BMP280;49036;42.782;23.108;2023-07-24T09:55:07;94124.53;;;32.58
62930;BMP280;49036;42.782;23.108;2023-07-24T09:57:34;94117.91;;;32.66
62930;BMP280;49036;42.782;23.108;2023-07-24T10:00:00;94115.75;;;32.66
62930;BMP280;49036;42.782;23.108;2023-07-24T10:02:27;94114.50;;;33.56
62930;BMP280;49036;42.782;23.108;2023-07-24T10:04:54;94108.19;;;33.80
62930;BMP280;49036;42.782;23.108;2023-07-24T10:07:20;94105.69;;;34.73
62930;BMP280;49036;42.782;23.108;2023-07-24T10:09:48;94115.84;;;34.95
62930;BMP280;49036;42.782;23.108;2023-07-24T10:12:17;94105.69;;;34.48
62930;BMP280;49036;42.782;23.108;2023-07-24T10:14:44;94097.19;;;34.42
62930;BMP280;49036;42.782;23.108;2023-07-24T10:17:10;94103.50;;;34.98
62930;BMP280;49036;42.782;23.108;2023-07-24T10:19:40;94102.41;;;35.10
62930;BMP280;49036;42.782;23.108;2023-07-24T10:22:05;94103.69;;;35.83
62930;BMP280;49036;42.782;23.108;2023-07-24T10:24:33;94093.50;;;36.07
62930;BMP280;49036;42.782;23.108;2023-07-24T10:26:58;94092.69;;;34.97
62930;BMP280;49036;42.782;23.108;2023-07-24T10:29:24;94086.03;;;35.70
62930;BMP280;49036;42.782;23.108;2023-07-24T10:31:54;94091.91;;;35.46
62930;BMP280;49036;42.782;23.108;2023-07-24T10:34:20;94081.31;;;34.93
62930;BMP280;49036;42.782;23.108;2023-07-24T10:36:46;94083.34;;;34.96
62930;BMP280;49036;42.782;23.108;2023-07-24T10:39:16;94087.00;;;34.95
62930;BMP280;49036;42.782;23.108;2023-07-24T10:41:44;94091.47;;;35.37
62930;BMP280;49036;42.782;23.108;2023-07-24T10:44:10;94077.09;;;35.58
62930;BMP280;49036;42.782;23.108;2023-07-24T10:46:40;94076.50;;;35.97
62930;BMP280;49036;42.782;23.108;2023-07-24T10:49:07;94065.00;;;36.92
62930;BMP280;49036;42.782;23.108;2023-07-24T10:51:33;94067.84;;;36.94
62930;BMP280;49036;42.782;23.108;2023-07-24T10:54:07;94069.59;;;34.99
62930;BMP280;49036;42.782;23.108;2023-07-24T10:56:33;94074.06;;;35.16
62930;BMP280;49036;42.782;23.108;2023-07-24T10:59:03;94070.94;;;35.68
62930;BMP280;49036;42.782;23.108;2023-07-24T11:01:30;94071.13;;;34.71
62930;BMP280;49036;42.782;23.108;2023-07-24T11:03:56;94063.75;;;33.11
62930;BMP280;49036;42.782;23.108;2023-07-24T11:06:22;94067.69;;;33.86
62930;BMP280;49036;42.782;23.108;2023-07-24T11:08:55;94063.13;;;34.73
62930;BMP280;49036;42.782;23.108;2023-07-24T11:11:35;94053.88;;;35.39
62930;BMP280;49036;42.782;23.108;2023-07-24T11:14:04;94043.84;;;36.21
62930;BMP280;49036;42.782;23.108;2023-07-24T11:16:30;94031.06;;;37.09
62930;BMP280;49036;42.782;23.108;2023-07-24T11:18:58;94032.44;;;36.36
62930;BMP280;49036;42.782;23.108;2023-07-24T11:21:23;94041.81;;;35.33
62930;BMP280;49036;42.782;23.108;2023-07-24T11:23:51;94039.56;;;34.40
62930;BMP280;49036;42.782;23.108;2023-07-24T11:26:19;94027.59;;;33.78
62930;BMP280;49036;42.782;23.108;2023-07-24T11:28:45;94032.38;;;32.99
62930;BMP280;49036;42.782;23.108;2023-07-24T11:31:11;94027.16;;;33.94
62930;BMP280;49036;42.782;23.108;2023-07-24T11:33:37;94024.31;;;33.37
62930;BMP280;49036;42.782;23.108;2023-07-24T11:36:03;94029.38;;;34.18
62930;BMP280;49036;42.782;23.108;2023-07-24T11:38:29;94037.16;;;34.24
62930;BMP280;49036;42.782;23.108;2023-07-24T11:40:55;94025.72;;;33.38
62930;BMP280;49036;42.782;23.108;2023-07-24T11:43:23;94015.41;;;34.54
62930;BMP280;49036;42.782;23.108;2023-07-24T11:45:52;94011.41;;;36.58
62930;BMP280;49036;42.782;23.108;2023-07-24T11:48:19;94004.69;;;38.17
62930;BMP280;49036;42.782;23.108;2023-07-24T11:50:47;94005.97;;;39.12
62930;BMP280;49036;42.782;23.108;2023-07-24T11:53:27;94007.66;;;39.66
62930;BMP280;49036;42.782;23.108;2023-07-24T11:55:54;94004.78;;;39.37
62930;BMP280;49036;42.782;23.108;2023-07-24T11:58:20;94003.13;;;39.83
62930;BMP280;49036;42.782;23.108;2023-07-24T12:00:47;93997.91;;;41.04
62930;BMP280;49036;42.782;23.108;2023-07-24T12:03:19;94011.19;;;40.88
62930;BMP280;49036;42.782;23.108;2023-07-24T12:05:44;94003.72;;;41.16
62930;BMP280;49036;42.782;23.108;2023-07-24T12:08:10;93999.44;;;42.80
62930;BMP280;49036;42.782;23.108;2023-07-24T12:10:38;94003.31;;;42.76
62930;BMP280;49036;42.782;23.108;2023-07-24T12:13:03;94007.22;;;40.81
62930;BMP280;49036;42.782;23.108;2023-07-24T12:15:29;94005.00;;;40.69
62930;BMP280;49036;42.782;23.108;2023-07-24T12:17:55;93994.97;;;40.41
62930;BMP280;49036;42.782;23.108;2023-07-24T12:20:22;93997.97;;;39.27
62930;BMP280;49036;42.782;23.108;2023-07-24T12:22:48;93989.06;;;39.02
62930;BMP280;49036;42.782;23.108;2023-07-24T12:25:13;93991.03;;;39.50
62930;BMP280;49036;42.782;23.108;2023-07-24T12:27:40;93989.06;;;39.88
62930;BMP280;49036;42.782;23.108;2023-07-24T12:30:07;93993.50;;;39.72
62930;BMP280;49036;42.782;23.108;2023-07-24T12:32:33;93987.06;;;39.70
62930;BMP280;49036;42.782;23.108;2023-07-24T12:34:58;93987.16;;;40.10
62930;BMP280;49036;42.782;23.108;2023-07-24T12:37:24;93981.09;;;40.54
62930;BMP280;49036;42.782;23.108;2023-07-24T12:39:49;93984.34;;;40.48
62930;BMP280;49036;42.782;23.108;2023-07-24T12:42:16;93990.16;;;39.80
62930;BMP280;49036;42.782;23.108;2023-07-24T12:44:42;93981.19;;;39.01
62930;BMP280;49036;42.782;23.108;2023-07-24T12:47:08;93983.53;;;39.40
62930;BMP280;49036;42.782;23.108;2023-07-24T12:49:34;93980.56;;;39.84
62930;BMP280;49036;42.782;23.108;2023-07-24T12:51:59;93966.06;;;39.69
62930;BMP280;49036;42.782;23.108;2023-07-24T12:54:25;93974.63;;;39.86
62930;BMP280;49036;42.782;23.108;2023-07-24T12:56:51;93971.66;;;39.02
62930;BMP280;49036;42.782;23.108;2023-07-24T12:59:17;93972.72;;;40.08
62930;BMP280;49036;42.782;23.108;2023-07-24T13:01:43;93969.69;;;39.55
62930;BMP280;49036;42.782;23.108;2023-07-24T13:04:09;93969.13;;;39.53
62930;BMP280;49036;42.782;23.108;2023-07-24T13:06:35;93963.22;;;38.67
62930;BMP280;49036;42.782;23.108;2023-07-24T13:09:00;93961.22;;;38.78
62930;BMP280;49036;42.782;23.108;2023-07-24T13:11:26;93961.56;;;39.01
62930;BMP280;49036;42.782;23.108;2023-07-24T13:13:54;93967.41;;;39.43
62930;BMP280;49036;42.782;23.108;2023-07-24T13:16:20;93971.03;;;39.00
62930;BMP280;49036;42.782;23.108;2023-07-24T13:18:45;93970.03;;;39.76
62930;BMP280;49036;42.782;23.108;2023-07-24T13:21:11;93972.19;;;39.63
62930;BMP280;49036;42.782;23.108;2023-07-24T13:23:36;93974.03;;;39.83
62930;BMP280;49036;42.782;23.108;2023-07-24T13:26:03;93968.63;;;39.19
62930;BMP280;49036;42.782;23.108;2023-07-24T13:28:28;93964.25;;;39.62
62930;BMP280;49036;42.782;23.108;2023-07-24T13:30:55;93960.25;;;39.13
62930;BMP280;49036;42.782;23.108;2023-07-24T13:33:20;93955.53;;;38.76
62930;BMP280;49036;42.782;23.108;2023-07-24T13:35:47;93956.53;;;39.29
62930;BMP280;49036;42.782;23.108;2023-07-24T13:38:13;93951.97;;;39.47
62930;BMP280;49036;42.782;23.108;2023-07-24T13:40:40;93957.06;;;39.88
62930;BMP280;49036;42.782;23.108;2023-07-24T13:43:05;93955.69;;;40.00
62930;BMP280;49036;42.782;23.108;2023-07-24T13:45:31;93947.81;;;39.71
62930;BMP280;49036;42.782;23.108;2023-07-24T13:47:57;93960.03;;;40.66
62930;BMP280;49036;42.782;23.108;2023-07-24T13:50:23;93962.19;;;40.27
62930;BMP280;49036;42.782;23.108;2023-07-24T13:52:49;93947.66;;;40.40
62930;BMP280;49036;42.782;23.108;2023-07-24T13:55:14;93950.38;;;39.50
62930;BMP280;49036;42.782;23.108;2023-07-24T13:57:41;93942.53;;;38.75
62930;BMP280;49036;42.782;23.108;2023-07-24T14:00:06;93946.22;;;39.17
62930;BMP280;49036;42.782;23.108;2023-07-24T14:02:32;93944.50;;;39.22
62930;BMP280;49036;42.782;23.108;2023-07-24T14:04:58;93937.59;;;39.15
62930;BMP280;49036;42.782;23.108;2023-07-24T14:07:23;93944.28;;;38.68
62930;BMP280;49036;42.782;23.108;2023-07-24T14:09:48;93950.44;;;39.06